createdAt,value
2018-07-29T00:00:13.941Z,0
2018-07-29T00:01:47.135Z,0
2018-07-29T00:03:01.827Z,0
2018-07-29T00:04:16.295Z,0
2018-07-29T00:05:30.212Z,0
2018-07-29T00:06:44.678Z,0
2018-07-29T00:07:59.149Z,0
2018-07-29T00:09:13.075Z,0
2018-07-29T00:10:27.792Z,0
2018-07-29T00:11:42.292Z,0
2018-07-29T00:12:56.738Z,0
2018-07-29T00:14:11.432Z,0
2018-07-29T00:15:26.139Z,0
2018-07-29T00:16:40.569Z,0
2018-07-29T00:17:55.575Z,0
2018-07-29T00:19:10.273Z,0
2018-07-29T00:20:24.871Z,0
2018-07-29T00:21:39.301Z,0
2018-07-29T00:22:53.819Z,0
2018-07-29T00:24:08.485Z,0
2018-07-29T00:25:23.183Z,0
2018-07-29T00:26:38.126Z,0
2018-07-29T00:27:52.905Z,0
2018-07-29T00:29:07.369Z,0
2018-07-29T00:30:21.799Z,0
2018-07-29T00:31:36.468Z,0
2018-07-29T00:32:51.462Z,0
2018-07-29T00:34:06.182Z,0
2018-07-29T00:35:20.616Z,0
2018-07-29T00:36:41.300Z,0
2018-07-29T00:37:55.984Z,0
2018-07-29T00:39:09.955Z,0
2018-07-29T00:40:24.419Z,0
2018-07-29T00:41:38.888Z,0
2018-07-29T00:42:53.614Z,0
2018-07-29T00:44:08.007Z,0
2018-07-29T00:45:22.964Z,0
2018-07-29T00:46:37.390Z,0
2018-07-29T00:47:51.593Z,0
2018-07-29T00:49:05.552Z,0
2018-07-29T00:50:19.488Z,0
2018-07-29T00:51:34.219Z,0
2018-07-29T00:52:48.868Z,0
2018-07-29T00:54:03.506Z,0
2018-07-29T00:55:17.451Z,0
2018-07-29T00:56:31.612Z,0
2018-07-29T00:57:46.320Z,0
2018-07-29T00:59:00.748Z,0
2018-07-29T01:00:15.726Z,0
2018-07-29T01:01:29.677Z,0
2018-07-29T01:02:43.863Z,0
2018-07-29T01:03:58.159Z,0
2018-07-29T01:05:12.609Z,0
2018-07-29T01:06:26.775Z,0
2018-07-29T01:07:41.411Z,0
2018-07-29T01:08:55.755Z,0
2018-07-29T01:10:10.515Z,0
2018-07-29T01:11:24.743Z,0
2018-07-29T01:12:38.944Z,0
2018-07-29T01:13:53.635Z,0
2018-07-29T01:15:07.581Z,0
2018-07-29T01:16:22.544Z,0
2018-07-29T01:17:37.245Z,0
2018-07-29T01:18:51.473Z,0
2018-07-29T01:20:05.923Z,0
2018-07-29T01:21:20.364Z,0
2018-07-29T01:22:35.360Z,0
2018-07-29T01:23:49.938Z,0
2018-07-29T01:25:04.372Z,0
2018-07-29T01:26:18.964Z,0
2018-07-29T01:27:32.915Z,0
2018-07-29T01:28:47.651Z,0
2018-07-29T01:30:02.340Z,0
2018-07-29T01:31:17.014Z,0
2018-07-29T01:32:31.483Z,0
2018-07-29T01:33:45.896Z,0
2018-07-29T01:35:00.186Z,0
2018-07-29T01:36:14.628Z,0
2018-07-29T01:37:29.047Z,0
2018-07-29T01:38:43.992Z,0
2018-07-29T01:39:57.647Z,0
2018-07-29T01:41:11.846Z,0
2018-07-29T01:42:26.821Z,0
2018-07-29T01:43:41.006Z,0
2018-07-29T01:44:55.681Z,0
2018-07-29T01:46:09.594Z,0
2018-07-29T01:47:24.288Z,0
2018-07-29T01:48:38.194Z,0
2018-07-29T01:49:52.330Z,0
2018-07-29T01:51:06.779Z,0
2018-07-29T01:52:20.932Z,0
2018-07-29T01:53:36.130Z,0
2018-07-29T01:54:51.127Z,0
2018-07-29T01:56:05.561Z,0
2018-07-29T01:57:20.028Z,0
2018-07-29T01:58:34.444Z,0
2018-07-29T01:59:49.059Z,0
2018-07-29T02:01:03.752Z,0
2018-07-29T02:02:18.668Z,0
2018-07-29T02:03:33.073Z,0
2018-07-29T02:04:47.550Z,0
2018-07-29T02:06:02.253Z,0
2018-07-29T02:07:16.942Z,0
2018-07-29T02:08:31.347Z,0
2018-07-29T02:09:45.741Z,0
2018-07-29T02:11:00.206Z,0
2018-07-29T02:12:14.400Z,0
2018-07-29T02:13:28.580Z,0
2018-07-29T02:14:43.009Z,0
2018-07-29T02:15:57.607Z,0
2018-07-29T02:17:12.580Z,0
2018-07-29T02:18:27.792Z,0
2018-07-29T02:19:42.454Z,0
2018-07-29T02:20:57.203Z,0
2018-07-29T02:22:11.608Z,0
2018-07-29T02:23:26.024Z,0
2018-07-29T02:24:40.531Z,0
2018-07-29T02:25:55.227Z,0
2018-07-29T02:27:09.657Z,0
2018-07-29T02:28:24.085Z,0
2018-07-29T02:29:38.484Z,0
2018-07-29T02:30:53.244Z,0
2018-07-29T02:32:07.700Z,0
2018-07-29T02:33:22.544Z,0
2018-07-29T02:34:36.947Z,0
2018-07-29T02:35:51.153Z,0
2018-07-29T02:37:05.867Z,0
2018-07-29T02:38:20.101Z,0
2018-07-29T02:39:34.546Z,0
2018-07-29T02:40:48.467Z,0
2018-07-29T02:42:03.337Z,0
2018-07-29T02:43:17.750Z,0
2018-07-29T02:44:32.215Z,0
2018-07-29T02:45:46.873Z,0
2018-07-29T02:47:01.422Z,0
2018-07-29T02:48:16.369Z,0
2018-07-29T02:49:31.072Z,0
2018-07-29T02:50:45.522Z,0
2018-07-29T02:51:59.718Z,0
2018-07-29T02:53:14.167Z,0
2018-07-29T02:54:28.880Z,0
2018-07-29T02:55:43.636Z,0
2018-07-29T02:56:58.756Z,0
2018-07-29T02:58:12.705Z,0
2018-07-29T02:59:27.504Z,0
2018-07-29T03:00:41.939Z,0
2018-07-29T03:01:56.183Z,0
2018-07-29T03:03:10.860Z,0
2018-07-29T03:04:25.278Z,0
2018-07-29T03:05:39.978Z,0
2018-07-29T03:06:55.266Z,0
2018-07-29T03:08:09.207Z,0
2018-07-29T03:09:24.149Z,0
2018-07-29T03:10:38.312Z,0
2018-07-29T03:11:52.228Z,0
2018-07-29T03:13:07.090Z,0
2018-07-29T03:14:22.066Z,0
2018-07-29T03:15:36.501Z,0
2018-07-29T03:16:50.415Z,4
2018-07-29T03:18:05.345Z,4
2018-07-29T03:19:20.069Z,0
2018-07-29T03:20:35.020Z,4
2018-07-29T03:21:49.231Z,4
2018-07-29T03:23:03.947Z,4
2018-07-29T03:24:18.615Z,8
2018-07-29T03:25:33.302Z,8
2018-07-29T03:26:48.017Z,8
2018-07-29T03:28:02.538Z,8
2018-07-29T03:29:17.213Z,12
2018-07-29T03:30:31.147Z,16
2018-07-29T03:31:45.096Z,16
2018-07-29T03:33:00.132Z,20
2018-07-29T03:34:13.802Z,24
2018-07-29T03:35:28.224Z,28
2018-07-29T03:36:42.415Z,32
2018-07-29T03:37:56.333Z,32
2018-07-29T03:39:10.977Z,40
2018-07-29T03:40:25.555Z,48
2018-07-29T03:41:40.002Z,52
2018-07-29T03:42:54.166Z,64
2018-07-29T03:44:08.789Z,68
2018-07-29T03:45:23.182Z,80
2018-07-29T03:46:37.582Z,88
2018-07-29T03:47:52.527Z,100
2018-07-29T03:49:07.237Z,116
2018-07-29T03:50:21.648Z,132
2018-07-29T03:51:36.402Z,148
2018-07-29T03:52:51.331Z,168
2018-07-29T03:54:06.095Z,188
2018-07-29T03:55:20.295Z,200
2018-07-29T03:56:34.197Z,208
2018-07-29T03:57:49.147Z,224
2018-07-29T03:59:03.925Z,244
2018-07-29T04:00:17.610Z,268
2018-07-29T04:01:32.285Z,284
2018-07-29T04:02:46.695Z,292
2018-07-29T04:04:01.711Z,300
2018-07-29T04:05:16.431Z,320
2018-07-29T04:06:31.310Z,340
2018-07-29T04:07:45.463Z,364
2018-07-29T04:09:00.391Z,396
2018-07-29T04:10:14.828Z,448
2018-07-29T04:11:29.712Z,524
2018-07-29T04:12:44.669Z,616
2018-07-29T04:13:59.399Z,752
2018-07-29T04:15:13.812Z,948
2018-07-29T04:16:28.291Z,1176
2018-07-29T04:17:42.939Z,1188
2018-07-29T04:18:57.375Z,1308
2018-07-29T04:20:11.775Z,1344
2018-07-29T04:21:25.932Z,1388
2018-07-29T04:22:40.402Z,1620
2018-07-29T04:23:55.329Z,1708
2018-07-29T04:25:10.152Z,1596
2018-07-29T04:26:24.589Z,1520
2018-07-29T04:27:39.110Z,1564
2018-07-29T04:28:53.839Z,1728
2018-07-29T04:30:08.163Z,1824
2018-07-29T04:31:22.550Z,2216
2018-07-29T04:32:36.471Z,2700
2018-07-29T04:33:50.868Z,2912
2018-07-29T04:35:05.971Z,3112
2018-07-29T04:36:20.640Z,2900
2018-07-29T04:37:35.031Z,2768
2018-07-29T04:38:49.714Z,3048
2018-07-29T04:40:03.672Z,3368
2018-07-29T04:41:17.626Z,3552
2018-07-29T04:42:32.037Z,3376
2018-07-29T04:43:46.442Z,3392
2018-07-29T04:45:01.325Z,4132
2018-07-29T04:46:16.234Z,4408
2018-07-29T04:47:30.687Z,4716
2018-07-29T04:48:45.127Z,4508
2018-07-29T04:49:59.845Z,4512
2018-07-29T04:51:14.569Z,4292
2018-07-29T04:52:28.830Z,4796
2018-07-29T04:53:42.766Z,4848
2018-07-29T04:54:57.905Z,4332
2018-07-29T04:56:12.509Z,3964
2018-07-29T04:57:27.209Z,3872
2018-07-29T04:58:41.396Z,3876
2018-07-29T04:59:56.487Z,3768
2018-07-29T05:01:11.570Z,3848
2018-07-29T05:02:26.220Z,4296
2018-07-29T05:03:40.900Z,4848
2018-07-29T05:04:55.579Z,4940
2018-07-29T05:06:10.470Z,4952
2018-07-29T05:07:24.921Z,5680
2018-07-29T05:08:39.125Z,5648
2018-07-29T05:09:53.827Z,5992
2018-07-29T05:11:08.269Z,6720
2018-07-29T05:12:22.001Z,5540
2018-07-29T05:13:36.444Z,6680
2018-07-29T05:14:50.837Z,7340
2018-07-29T05:16:05.522Z,9696
2018-07-29T05:17:19.694Z,9696
2018-07-29T05:18:33.914Z,7668
2018-07-29T05:19:49.268Z,9504
2018-07-29T05:21:03.960Z,9088
2018-07-29T05:22:18.376Z,8852
2018-07-29T05:23:32.324Z,10080
2018-07-29T05:24:47.534Z,9708
2018-07-29T05:26:02.445Z,11404
2018-07-29T05:27:16.957Z,11040
2018-07-29T05:28:31.368Z,10632
2018-07-29T05:29:59.295Z,7284
2018-07-29T05:31:14.607Z,6468
2018-07-29T05:32:29.045Z,6452
2018-07-29T05:33:43.232Z,6476
2018-07-29T05:34:56.906Z,6400
2018-07-29T05:36:12.040Z,6080
2018-07-29T05:37:26.236Z,6332
2018-07-29T05:38:41.217Z,7120
2018-07-29T05:39:56.117Z,6876
2018-07-29T05:41:10.911Z,6164
2018-07-29T05:42:25.364Z,6668
2018-07-29T05:43:39.934Z,6408
2018-07-29T05:44:54.494Z,6552
2018-07-29T05:46:09.571Z,6660
2018-07-29T05:47:24.160Z,6644
2018-07-29T05:48:39.223Z,6520
2018-07-29T05:49:53.799Z,7196
2018-07-29T05:51:08.341Z,7484
2018-07-29T05:52:23.457Z,8056
2018-07-29T05:53:37.745Z,8196
2018-07-29T05:54:52.545Z,8576
2018-07-29T05:56:07.437Z,8320
2018-07-29T05:57:23.030Z,7848
2018-07-29T05:58:37.863Z,7524
2018-07-29T05:59:52.616Z,7088
2018-07-29T06:01:07.411Z,7032
2018-07-29T06:02:22.148Z,6900
2018-07-29T06:03:36.658Z,6796
2018-07-29T06:04:51.307Z,6792
2018-07-29T06:06:05.885Z,6852
2018-07-29T06:07:20.581Z,6840
2018-07-29T06:08:35.091Z,6856
2018-07-29T06:09:49.649Z,6756
2018-07-29T06:11:04.158Z,6764
2018-07-29T06:12:19.056Z,6752
2018-07-29T06:13:33.833Z,6840
2018-07-29T06:14:48.303Z,6848
2018-07-29T06:16:02.821Z,7024
2018-07-29T06:17:17.602Z,6972
2018-07-29T06:18:32.152Z,6840
2018-07-29T06:19:46.668Z,6748
2018-07-29T06:21:01.157Z,6600
2018-07-29T06:22:15.683Z,6580
2018-07-29T06:23:30.528Z,6664
2018-07-29T06:24:45.502Z,6712
2018-07-29T06:26:01.054Z,6848
2018-07-29T06:27:15.567Z,6940
2018-07-29T06:28:29.735Z,6900
2018-07-29T06:29:44.189Z,6840
2018-07-29T06:30:58.382Z,6996
2018-07-29T06:32:13.353Z,7284
2018-07-29T06:33:42.419Z,7200
2018-07-29T06:34:56.869Z,7036
2018-07-29T06:36:11.825Z,6760
2018-07-29T06:37:26.264Z,6660
2018-07-29T06:38:40.769Z,6344
2018-07-29T06:39:55.014Z,6044
2018-07-29T06:41:09.458Z,5980
2018-07-29T06:42:24.166Z,6060
2018-07-29T06:43:39.168Z,6052
2018-07-29T06:44:53.149Z,5988
2018-07-29T06:46:07.384Z,5968
2018-07-29T06:47:21.566Z,6012
2018-07-29T06:48:35.987Z,6008
2018-07-29T06:49:50.967Z,5872
2018-07-29T06:51:05.296Z,6024
2018-07-29T06:52:19.736Z,6228
2018-07-29T06:53:34.159Z,6492
2018-07-29T06:54:48.883Z,6884
2018-07-29T06:56:03.859Z,7348
2018-07-29T06:57:18.471Z,7824
2018-07-29T06:58:33.166Z,7896
2018-07-29T06:59:47.889Z,7876
2018-07-29T07:01:02.110Z,7660
2018-07-29T07:02:17.072Z,7452
2018-07-29T07:03:32.322Z,7216
2018-07-29T07:04:46.613Z,7092
2018-07-29T07:06:01.016Z,7116
2018-07-29T07:07:15.809Z,7240
2018-07-29T07:08:30.639Z,7056
2018-07-29T07:09:44.648Z,7132
2018-07-29T07:10:59.593Z,7000
2018-07-29T07:12:14.550Z,6788
2018-07-29T07:13:28.972Z,6492
2018-07-29T07:14:44.087Z,6116
2018-07-29T07:15:58.552Z,5836
2018-07-29T07:17:13.484Z,5980
2018-07-29T07:18:28.190Z,6372
2018-07-29T07:19:42.711Z,6628
2018-07-29T07:20:56.919Z,6272
2018-07-29T07:22:11.352Z,6196
2018-07-29T07:23:25.515Z,6384
2018-07-29T07:24:39.747Z,6828
2018-07-29T07:25:54.693Z,7152
2018-07-29T07:27:09.642Z,7104
2018-07-29T07:28:24.343Z,7032
2018-07-29T07:29:39.568Z,6848
2018-07-29T07:30:54.065Z,6520
2018-07-29T07:32:08.763Z,6512
2018-07-29T07:33:23.495Z,7032
2018-07-29T07:34:38.504Z,7640
2018-07-29T07:35:52.799Z,7844
2018-07-29T07:37:07.135Z,8136
2018-07-29T07:38:22.175Z,8224
2018-07-29T07:39:37.530Z,8492
2018-07-29T07:40:53.015Z,8636
2018-07-29T07:42:07.704Z,8600
2018-07-29T07:43:22.375Z,8272
2018-07-29T07:44:36.784Z,8220
2018-07-29T07:45:51.840Z,7848
2018-07-29T07:47:06.653Z,7796
2018-07-29T07:48:20.572Z,7964
2018-07-29T07:49:35.017Z,8020
2018-07-29T07:50:49.293Z,8580
2018-07-29T07:52:04.011Z,8972
2018-07-29T07:53:18.331Z,9384
2018-07-29T07:54:32.564Z,9328
2018-07-29T07:55:46.995Z,8908
2018-07-29T07:57:01.676Z,8388
2018-07-29T07:58:16.376Z,7888
2018-07-29T07:59:31.150Z,7544
2018-07-29T08:00:46.145Z,7520
2018-07-29T08:02:01.169Z,7504
2018-07-29T08:03:16.013Z,7680
2018-07-29T08:04:31.295Z,7600
2018-07-29T08:05:45.792Z,7224
2018-07-29T08:07:00.581Z,6968
2018-07-29T08:08:15.063Z,6732
2018-07-29T08:09:29.962Z,6692
2018-07-29T08:10:45.094Z,6652
2018-07-29T08:11:59.532Z,6808
2018-07-29T08:13:13.362Z,6884
2018-07-29T08:14:27.860Z,6860
2018-07-29T08:15:42.597Z,6920
2018-07-29T08:16:57.309Z,6928
2018-07-29T08:18:11.788Z,6964
2018-07-29T08:19:26.305Z,7304
2018-07-29T08:20:40.821Z,7704
2018-07-29T08:21:55.272Z,8200
2018-07-29T08:23:10.447Z,8604
2018-07-29T08:24:24.652Z,8780
2018-07-29T08:25:39.369Z,9032
2018-07-29T08:26:54.478Z,9144
2018-07-29T08:28:09.458Z,8756
2018-07-29T08:29:24.883Z,8452
2018-07-29T08:30:39.656Z,8096
2018-07-29T08:31:54.422Z,7796
2018-07-29T08:33:08.994Z,7672
2018-07-29T08:34:23.715Z,7876
2018-07-29T08:35:38.232Z,7844
2018-07-29T08:36:53.138Z,7916
2018-07-29T08:38:07.607Z,8236
2018-07-29T08:39:22.540Z,7680
2018-07-29T08:40:36.778Z,7036
2018-07-29T08:41:51.182Z,6768
2018-07-29T08:43:05.600Z,7216
2018-07-29T08:44:19.776Z,6472
2018-07-29T08:45:35.233Z,6024
2018-07-29T08:46:49.774Z,5832
2018-07-29T08:48:04.757Z,6132
2018-07-29T08:49:19.764Z,6692
2018-07-29T08:50:34.461Z,7076
2018-07-29T08:51:48.975Z,7496
2018-07-29T08:53:03.952Z,7508
2018-07-29T08:54:18.679Z,7448
2018-07-29T08:55:32.909Z,7936
2018-07-29T08:56:47.854Z,7580
2018-07-29T08:58:02.334Z,7356
2018-07-29T08:59:17.074Z,6600
2018-07-29T09:00:31.563Z,6280
2018-07-29T09:01:46.162Z,5892
2018-07-29T09:03:00.851Z,6016
2018-07-29T09:04:15.118Z,6208
2018-07-29T09:05:29.564Z,6280
2018-07-29T09:06:44.243Z,6140
2018-07-29T09:07:58.293Z,6188
2018-07-29T09:09:13.036Z,5872
2018-07-29T09:10:27.577Z,5852
2018-07-29T09:11:42.283Z,6324
2018-07-29T09:12:57.425Z,6932
2018-07-29T09:14:11.877Z,7272
2018-07-29T09:15:26.598Z,7628
2018-07-29T09:16:41.288Z,7712
2018-07-29T09:17:55.756Z,7612
2018-07-29T09:19:10.027Z,7376
2018-07-29T09:20:24.568Z,7368
2018-07-29T09:21:38.961Z,7328
2018-07-29T09:22:54.204Z,7264
2018-07-29T09:24:08.172Z,7188
2018-07-29T09:25:22.650Z,7288
2018-07-29T09:26:37.133Z,7476
2018-07-29T09:27:51.832Z,7644
2018-07-29T09:29:05.766Z,7408
2018-07-29T09:30:19.813Z,6808
2018-07-29T09:31:35.190Z,6540
2018-07-29T09:32:49.577Z,6280
2018-07-29T09:34:04.064Z,6072
2018-07-29T09:35:18.317Z,6400
2018-07-29T09:36:32.765Z,7012
2018-07-29T09:37:47.532Z,7352
2018-07-29T09:39:02.282Z,7472
2018-07-29T09:40:16.653Z,7108
2018-07-29T09:41:31.198Z,6100
2018-07-29T09:42:46.231Z,5596
2018-07-29T09:44:01.058Z,5200
2018-07-29T09:45:16.436Z,5196
2018-07-29T09:46:31.490Z,5444
2018-07-29T09:47:46.199Z,5956
2018-07-29T09:49:01.071Z,6572
2018-07-29T09:50:16.384Z,7080
2018-07-29T09:51:30.921Z,7448
2018-07-29T09:52:45.862Z,7688
2018-07-29T09:54:00.022Z,7636
2018-07-29T09:55:14.205Z,7620
2018-07-29T09:56:28.220Z,7116
2018-07-29T09:57:42.198Z,6988
2018-07-29T09:58:56.662Z,6816
2018-07-29T10:00:11.615Z,6500
2018-07-29T10:01:25.630Z,6444
2018-07-29T10:02:40.234Z,6364
2018-07-29T10:03:54.936Z,6328
2018-07-29T10:05:09.401Z,6028
2018-07-29T10:06:24.081Z,6376
2018-07-29T10:07:38.834Z,6940
2018-07-29T10:08:53.897Z,6944
2018-07-29T10:10:08.569Z,6872
2018-07-29T10:11:23.061Z,6864
2018-07-29T10:12:37.683Z,7312
2018-07-29T10:13:51.885Z,7376
2018-07-29T10:15:06.439Z,7624
2018-07-29T10:16:21.474Z,7904
2018-07-29T10:17:36.209Z,7960
2018-07-29T10:18:50.479Z,7172
2018-07-29T10:20:05.419Z,6700
2018-07-29T10:21:20.589Z,5860
2018-07-29T10:22:35.293Z,5516
2018-07-29T10:23:49.259Z,5368
2018-07-29T10:25:04.438Z,5688
2018-07-29T10:26:18.924Z,6072
2018-07-29T10:27:33.723Z,5752
2018-07-29T10:28:48.453Z,5788
2018-07-29T10:30:03.528Z,5824
2018-07-29T10:31:18.249Z,5836
2018-07-29T10:32:32.660Z,5304
2018-07-29T10:33:47.660Z,5692
2018-07-29T10:35:02.442Z,6196
2018-07-29T10:36:17.230Z,6716
2018-07-29T10:37:31.694Z,7520
2018-07-29T10:38:46.413Z,7660
2018-07-29T10:40:00.386Z,7304
2018-07-29T10:41:14.603Z,7092
2018-07-29T10:42:29.076Z,7008
2018-07-29T10:43:43.811Z,6764
2018-07-29T10:44:57.687Z,6256
2018-07-29T10:46:12.126Z,6068
2018-07-29T10:47:27.404Z,6080
2018-07-29T10:48:41.990Z,6072
2018-07-29T10:49:55.966Z,5932
2018-07-29T10:51:09.953Z,6008
2018-07-29T10:52:24.997Z,5804
2018-07-29T10:53:39.497Z,5528
2018-07-29T10:54:53.994Z,5460
2018-07-29T10:56:08.590Z,5444
2018-07-29T10:57:22.811Z,5384
2018-07-29T10:58:38.113Z,5272
2018-07-29T10:59:53.857Z,5212
2018-07-29T11:01:08.820Z,5192
2018-07-29T11:02:23.564Z,5380
2018-07-29T11:03:38.601Z,5604
2018-07-29T11:04:53.570Z,5904
2018-07-29T11:06:07.303Z,6140
2018-07-29T11:07:21.970Z,5816
2018-07-29T11:08:35.910Z,5912
2018-07-29T11:09:50.358Z,5820
2018-07-29T11:11:04.947Z,5800
2018-07-29T11:12:19.887Z,5996
2018-07-29T11:13:34.445Z,6056
2018-07-29T11:14:48.949Z,6036
2018-07-29T11:16:03.444Z,6392
2018-07-29T11:17:18.382Z,6428
2018-07-29T11:18:33.104Z,6188
2018-07-29T11:19:47.855Z,6088
2018-07-29T11:21:02.304Z,6344
2018-07-29T11:22:16.178Z,6856
2018-07-29T11:23:30.924Z,6684
2018-07-29T11:24:46.145Z,6352
2018-07-29T11:26:00.593Z,6212
2018-07-29T11:27:15.590Z,6724
2018-07-29T11:28:30.434Z,6156
2018-07-29T11:29:45.146Z,5744
2018-07-29T11:30:59.432Z,5840
2018-07-29T11:32:14.308Z,6480
2018-07-29T11:33:28.757Z,6276
2018-07-29T11:34:43.565Z,6012
2018-07-29T11:35:58.332Z,6056
2018-07-29T11:37:13.056Z,6004
2018-07-29T11:38:28.196Z,5920
2018-07-29T11:39:42.509Z,6172
2018-07-29T11:40:57.453Z,6492
2018-07-29T11:42:12.873Z,6620
2018-07-29T11:43:27.116Z,6452
2018-07-29T11:44:41.699Z,6324
2018-07-29T11:45:55.920Z,6644
2018-07-29T11:47:10.070Z,6592
2018-07-29T11:48:24.716Z,6332
2018-07-29T11:50:11.386Z,5680
2018-07-29T11:51:25.833Z,5568
2018-07-29T11:52:40.707Z,5752
2018-07-29T11:53:55.189Z,5820
2018-07-29T11:55:09.719Z,5464
2018-07-29T11:56:23.974Z,5140
2018-07-29T11:57:38.778Z,4900
2018-07-29T11:58:53.803Z,4568
2018-07-29T12:00:08.533Z,4328
2018-07-29T12:01:22.990Z,4176
2018-07-29T12:02:37.790Z,4092
2018-07-29T12:03:52.290Z,3904
2018-07-29T12:05:06.610Z,4036
2018-07-29T12:06:21.350Z,3964
2018-07-29T12:07:35.691Z,4012
2018-07-29T12:08:50.438Z,4056
2018-07-29T12:10:04.899Z,4028
2018-07-29T12:11:19.325Z,4000
2018-07-29T12:12:34.367Z,3968
2018-07-29T12:13:48.372Z,3948
2018-07-29T12:15:02.613Z,3948
2018-07-29T12:16:17.123Z,3972
2018-07-29T12:17:32.133Z,4096
2018-07-29T12:18:47.125Z,4296
2018-07-29T12:20:02.019Z,4568
2018-07-29T12:21:16.905Z,4708
2018-07-29T12:22:31.113Z,4640
2018-07-29T12:23:46.020Z,4648
2018-07-29T12:25:00.954Z,4624
2018-07-29T12:26:15.458Z,4540
2018-07-29T12:27:30.274Z,4492
2018-07-29T12:28:44.630Z,4520
2018-07-29T12:29:58.916Z,4568
2018-07-29T12:31:13.724Z,4568
2018-07-29T12:32:28.011Z,4484
2018-07-29T12:33:42.499Z,4372
2018-07-29T12:34:56.949Z,4216
2018-07-29T12:36:11.645Z,4096
2018-07-29T12:37:26.193Z,3980
2018-07-29T12:38:40.982Z,3888
2018-07-29T12:39:55.717Z,3856
2018-07-29T12:41:10.441Z,3844
2018-07-29T12:42:25.484Z,3840
2018-07-29T12:43:40.336Z,3876
2018-07-29T12:44:54.098Z,3844
2018-07-29T12:46:08.876Z,3756
2018-07-29T12:47:23.184Z,3696
2018-07-29T12:48:37.185Z,3680
2018-07-29T12:49:51.695Z,3692
2018-07-29T12:51:05.668Z,3736
2018-07-29T12:52:19.674Z,3720
2018-07-29T12:53:34.454Z,3468
2018-07-29T12:54:48.867Z,3632
2018-07-29T12:56:03.517Z,3700
2018-07-29T12:57:18.295Z,3732
2018-07-29T12:58:33.084Z,3736
2018-07-29T12:59:47.164Z,3700
2018-07-29T13:01:01.878Z,3656
2018-07-29T13:02:16.681Z,3636
2018-07-29T13:03:31.212Z,3616
2018-07-29T13:04:45.837Z,3776
2018-07-29T13:05:59.895Z,3984
2018-07-29T13:07:14.652Z,4044
2018-07-29T13:08:28.643Z,4084
2018-07-29T13:09:43.022Z,4064
2018-07-29T13:10:57.256Z,4072
2018-07-29T13:12:11.993Z,3876
2018-07-29T13:13:26.206Z,3648
2018-07-29T13:14:41.186Z,3300
2018-07-29T13:15:55.694Z,3140
2018-07-29T13:17:09.747Z,3128
2018-07-29T13:18:23.768Z,3052
2018-07-29T13:19:38.245Z,3072
2018-07-29T13:20:53.256Z,2960
2018-07-29T13:22:07.757Z,2948
2018-07-29T13:23:22.560Z,3040
2018-07-29T13:24:37.073Z,3016
2018-07-29T13:25:51.685Z,3124
2018-07-29T13:27:06.675Z,3252
2018-07-29T13:28:20.914Z,3376
2018-07-29T13:29:35.502Z,3380
2018-07-29T13:30:50.272Z,3572
2018-07-29T13:32:04.581Z,3536
2018-07-29T13:33:19.551Z,3504
2018-07-29T13:34:34.517Z,3400
2018-07-29T13:35:48.620Z,3332
2018-07-29T13:37:03.121Z,3240
2018-07-29T13:38:17.602Z,3164
2018-07-29T13:39:32.096Z,3188
2018-07-29T13:40:46.892Z,3164
2018-07-29T13:42:01.585Z,3300
2018-07-29T13:43:16.321Z,3484
2018-07-29T13:44:30.799Z,3572
2018-07-29T13:45:45.460Z,3532
2018-07-29T13:46:59.977Z,3504
2018-07-29T13:48:14.959Z,3504
2018-07-29T13:49:29.235Z,3564
2018-07-29T13:50:45.052Z,3492
2018-07-29T13:52:00.085Z,3500
2018-07-29T13:53:14.551Z,3500
2018-07-29T13:54:28.565Z,3416
2018-07-29T13:55:43.352Z,3300
2018-07-29T13:56:57.054Z,3192
2018-07-29T13:58:11.542Z,3196
2018-07-29T13:59:25.749Z,3076
2018-07-29T14:00:40.498Z,3004
2018-07-29T14:01:55.025Z,2948
2018-07-29T14:03:09.386Z,2888
2018-07-29T14:04:23.985Z,2864
2018-07-29T14:05:38.755Z,2864
2018-07-29T14:06:53.219Z,2840
2018-07-29T14:08:07.677Z,2908
2018-07-29T14:09:22.481Z,2940
2018-07-29T14:10:37.034Z,2916
2018-07-29T14:11:51.870Z,2960
2018-07-29T14:13:06.079Z,2996
2018-07-29T14:14:20.798Z,3000
2018-07-29T14:15:35.297Z,3084
2018-07-29T14:16:50.112Z,3088
2018-07-29T14:18:04.115Z,3272
2018-07-29T14:19:18.909Z,3352
2018-07-29T14:20:32.908Z,3424
2018-07-29T14:21:47.838Z,3500
2018-07-29T14:23:02.693Z,3604
2018-07-29T14:24:17.605Z,3536
2018-07-29T14:25:31.390Z,3648
2018-07-29T14:26:46.091Z,3700
2018-07-29T14:28:00.305Z,3756
2018-07-29T14:29:14.873Z,3764
2018-07-29T14:30:29.105Z,3792
2018-07-29T14:31:43.862Z,3784
2018-07-29T14:32:58.712Z,3716
2018-07-29T14:34:13.210Z,3736
2018-07-29T14:35:28.648Z,3784
2018-07-29T14:36:43.794Z,3788
2018-07-29T14:37:57.784Z,3788
2018-07-29T14:39:12.561Z,3696
2018-07-29T14:40:27.334Z,3628
2018-07-29T14:41:42.112Z,3548
2018-07-29T14:42:56.935Z,3488
2018-07-29T14:44:11.205Z,3412
2018-07-29T14:45:25.656Z,3320
2018-07-29T14:46:40.647Z,3228
2018-07-29T14:47:55.539Z,3188
2018-07-29T14:49:10.060Z,3180
2018-07-29T14:50:24.787Z,3168
2018-07-29T14:51:39.539Z,3164
2018-07-29T14:52:54.319Z,3132
2018-07-29T14:54:09.221Z,3208
2018-07-29T14:55:23.497Z,3180
2018-07-29T14:56:38.265Z,3176
2018-07-29T14:57:53.000Z,3192
2018-07-29T14:59:08.120Z,3236
2018-07-29T15:00:23.849Z,3252
2018-07-29T15:01:38.635Z,3296
2018-07-29T15:02:52.928Z,3352
2018-07-29T15:04:07.699Z,3388
2018-07-29T15:05:22.503Z,3368
2018-07-29T15:06:37.606Z,3448
2018-07-29T15:07:51.961Z,3464
2018-07-29T15:09:07.110Z,3480
2018-07-29T15:10:21.851Z,3492
2018-07-29T15:11:36.095Z,3508
2018-07-29T15:12:50.869Z,3556
2018-07-29T15:14:05.548Z,3620
2018-07-29T15:15:20.179Z,3688
2018-07-29T15:16:34.747Z,3692
2018-07-29T15:17:49.551Z,3564
2018-07-29T15:19:04.172Z,3464
2018-07-29T15:20:18.476Z,3320
2018-07-29T15:21:33.042Z,3268
2018-07-29T15:22:48.254Z,3040
2018-07-29T15:24:03.155Z,3040
2018-07-29T15:25:18.285Z,2992
2018-07-29T15:26:32.582Z,2944
2018-07-29T15:27:47.332Z,2908
2018-07-29T15:29:02.202Z,2840
2018-07-29T15:30:16.480Z,2672
2018-07-29T15:31:31.019Z,2668
2018-07-29T15:32:45.547Z,2572
2018-07-29T15:34:00.195Z,2552
2018-07-29T15:35:14.883Z,2532
2018-07-29T15:36:29.921Z,2592
2018-07-29T15:37:44.950Z,2568
2018-07-29T15:38:59.360Z,2408
2018-07-29T15:40:13.633Z,2364
2018-07-29T15:41:28.375Z,2324
2018-07-29T15:42:42.347Z,2276
2018-07-29T15:43:56.868Z,2232
2018-07-29T15:45:11.587Z,2196
2018-07-29T15:46:26.092Z,2172
2018-07-29T15:47:40.287Z,2120
2018-07-29T15:48:54.741Z,2124
2018-07-29T15:50:09.636Z,2128
2018-07-29T15:51:23.881Z,2336
2018-07-29T15:52:38.598Z,2260
2018-07-29T15:53:52.814Z,2128
2018-07-29T15:55:07.392Z,2148
2018-07-29T15:56:21.910Z,2064
2018-07-29T15:57:35.662Z,2024
2018-07-29T15:58:49.869Z,2004
2018-07-29T16:00:04.916Z,2092
2018-07-29T16:01:19.639Z,2320
2018-07-29T16:02:34.131Z,2300
2018-07-29T16:03:48.345Z,2256
2018-07-29T16:05:02.854Z,2124
2018-07-29T16:06:17.300Z,2096
2018-07-29T16:07:31.984Z,2096
2018-07-29T16:08:46.501Z,2124
2018-07-29T16:10:01.226Z,2140
2018-07-29T16:11:15.694Z,2200
2018-07-29T16:12:30.242Z,2316
2018-07-29T16:13:44.943Z,2360
2018-07-29T16:14:59.511Z,2440
2018-07-29T16:16:14.222Z,2528
2018-07-29T16:17:28.944Z,2768
2018-07-29T16:18:43.114Z,2980
2018-07-29T16:19:57.998Z,3080
2018-07-29T16:21:12.719Z,2956
2018-07-29T16:22:27.206Z,2896
2018-07-29T16:23:41.654Z,2692
2018-07-29T16:24:56.232Z,2660
2018-07-29T16:26:11.145Z,2708
2018-07-29T16:27:25.737Z,2700
2018-07-29T16:28:39.475Z,2744
2018-07-29T16:29:53.690Z,2784
2018-07-29T16:31:07.913Z,2828
2018-07-29T16:32:22.611Z,2864
2018-07-29T16:33:36.879Z,2816
2018-07-29T16:34:51.356Z,2772
2018-07-29T16:36:05.849Z,2876
2018-07-29T16:37:20.325Z,2712
2018-07-29T16:38:35.004Z,2520
2018-07-29T16:39:49.766Z,2440
2018-07-29T16:41:07.531Z,2320
2018-07-29T16:42:21.839Z,2220
2018-07-29T16:43:36.499Z,2164
2018-07-29T16:44:51.273Z,2132
2018-07-29T16:46:06.074Z,2076
2018-07-29T16:47:20.758Z,2036
2018-07-29T16:48:35.289Z,2088
2018-07-29T16:49:49.730Z,2028
2018-07-29T16:51:03.918Z,1760
2018-07-29T16:52:18.696Z,1828
2018-07-29T16:53:32.924Z,1924
2018-07-29T16:54:47.810Z,1916
2018-07-29T16:56:02.834Z,1732